Time;durP1;ratioP1;P1;durP2;ratioP2;P2;SDS_P1;SDS_P2;PMS_P1;PMS_P2;Temp;Humidity;BMP_temperature;BMP_pressure;BME280_temperature;BME280_humidity;BME280_pressure;Samples;Min_cycle;Max_cycle;Signal;HPM_P1;HPM_P2
2022/07/15 00:01:50;;;;;;;4.33;2.43;;;19.50;1.00;;;;;;7364258;19;20011;-73
2022/07/15 00:04:20;;;;;;;4.32;2.22;;;19.40;1.00;;;;;;7362113;19;21282;-72
2022/07/15 00:06:50;;;;;;;5.45;2.72;;;19.40;1.00;;;;;;7363967;19;20018;-72
2022/07/15 00:09:20;;;;;;;5.07;2.78;;;19.30;1.00;;;;;;7359945;19;20015;-71
2022/07/15 00:11:50;;;;;;;4.38;2.60;;;19.30;1.00;;;;;;7364952;19;20014;-71
2022/07/15 00:14:23;;;;;;;3.00;2.15;;;19.30;1.00;;;;;;7382834;19;20023;-74
2022/07/15 00:16:52;;;;;;;5.40;2.58;;;19.20;1.00;;;;;;7362509;19;20082;-73
2022/07/15 00:19:22;;;;;;;3.85;2.47;;;19.20;1.00;;;;;;7358178;19;20017;-72
2022/07/15 00:21:52;;;;;;;7.80;3.40;;;19.20;1.00;;;;;;7363546;19;20094;-72
2022/07/15 00:24:22;;;;;;;9.90;3.00;;;19.10;1.00;;;;;;7360492;19;20092;-73
2022/07/15 00:26:52;;;;;;;6.20;2.88;;;19.10;1.00;;;;;;7363240;19;20070;-72
2022/07/15 00:29:25;;;;;;;5.43;2.75;;;19.10;1.00;;;;;;7380038;19;20750;-72
2022/07/15 00:31:56;;;;;;;6.93;2.67;;;19.00;1.00;;;;;;7362422;19;20018;-73
2022/07/15 00:34:26;;;;;;;4.63;2.50;;;18.90;1.00;;;;;;7357825;19;20022;-72
2022/07/15 00:36:56;;;;;;;4.63;2.50;;;18.80;1.00;;;;;;7361705;19;20041;-72
2022/07/15 00:39:26;;;;;;;6.70;2.60;;;18.80;1.00;;;;;;7357279;19;20010;-72
2022/07/15 00:41:56;;;;;;;7.20;2.58;;;18.80;1.00;;;;;;7362195;19;20078;-72
2022/07/15 00:44:29;;;;;;;6.55;2.65;;;18.70;1.00;;;;;;7380656;19;20069;-73
2022/07/15 00:47:00;;;;;;;4.50;2.45;;;18.60;1.00;;;;;;7361669;19;20014;-71
2022/07/15 00:49:30;;;;;;;4.18;2.72;;;18.60;1.00;;;;;;7360156;19;20011;-73
2022/07/15 00:52:02;;;;;;;8.77;2.97;;;18.60;1.00;;;;;;7363099;19;20018;-72
2022/07/15 00:54:32;;;;;;;5.03;2.88;;;18.50;1.00;;;;;;7359063;19;20403;-71
2022/07/15 00:57:04;;;;;;;5.45;2.47;;;18.60;1.00;;;;;;7363019;19;20078;-71
2022/07/15 00:59:38;;;;;;;9.32;2.70;;;18.50;1.00;;;;;;7388799;19;20018;-71
2022/07/15 01:02:08;;;;;;;3.40;2.73;;;18.50;1.00;;;;;;7370680;19;20014;-71
2022/07/15 01:04:40;;;;;;;5.05;2.70;;;18.50;1.00;;;;;;7364650;19;20105;-71
2022/07/15 01:07:10;;;;;;;3.38;2.38;;;18.40;1.00;;;;;;7368014;19;20023;-71
2022/07/15 01:09:40;;;;;;;4.72;2.60;;;18.40;1.00;;;;;;7369956;19;20020;-72
2022/07/15 01:12:09;;;;;;;5.85;2.70;;;18.30;1.00;;;;;;7370065;19;20006;-72
2022/07/15 01:14:44;;;;;;;3.78;2.60;;;18.30;1.00;;;;;;7386526;19;21083;-70
2022/07/15 01:17:14;;;;;;;5.55;2.65;;;18.20;1.00;;;;;;7364663;19;20115;-71
2022/07/15 01:19:44;;;;;;;4.43;2.40;;;18.20;1.00;;;;;;7367257;19;20039;-70
2022/07/15 01:22:17;;;;;;;3.22;2.10;;;18.20;1.00;;;;;;7369114;19;20093;-71
2022/07/15 01:24:46;;;;;;;7.57;2.70;;;18.10;1.00;;;;;;7365041;19;20011;-71
2022/07/15 01:27:16;;;;;;;5.82;2.55;;;18.10;1.00;;;;;;7364578;19;20094;-71
2022/07/15 01:29:46;;;;;;;4.32;2.42;;;18.10;1.00;;;;;;7391899;19;20006;-70
2022/07/15 01:32:16;;;;;;;3.95;2.35;;;18.10;1.00;;;;;;7370528;19;20460;-72
2022/07/15 01:34:48;;;;;;;5.60;2.30;;;18.10;1.00;;;;;;7363455;19;20028;-72
2022/07/15 01:37:20;;;;;;;7.93;2.78;;;18.10;1.00;;;;;;7364937;19;20141;-71
2022/07/15 01:39:50;;;;;;;4.10;2.45;;;18.10;1.00;;;;;;7368989;19;20474;-71
2022/07/15 01:42:20;;;;;;;3.92;2.33;;;18.20;1.00;;;;;;7369889;19;20031;-70
2022/07/15 01:44:50;;;;;;;5.85;2.95;;;18.10;1.00;;;;;;7365029;19;20018;-71
2022/07/15 01:47:20;;;;;;;5.55;2.20;;;18.10;1.00;;;;;;7384237;19;20006;-71
2022/07/15 01:49:47;;;;;;;7.03;2.65;;;18.10;1.00;;;;;;7368688;19;20103;-71
2022/07/15 01:52:20;;;;;;;8.75;2.75;;;17.80;1.00;;;;;;7369715;19;20054;-71
2022/07/15 01:54:50;;;;;;;3.95;2.42;;;17.80;1.00;;;;;;7361733;19;20027;-71
2022/07/15 01:57:20;;;;;;;5.47;2.75;;;17.70;1.00;;;;;;7363365;19;20504;-71
2022/07/15 01:59:50;;;;;;;5.30;2.80;;;17.80;1.00;;;;;;7373709;19;20538;-71
2022/07/15 02:02:20;;;;;;;6.53;2.67;;;17.80;1.00;;;;;;7390572;19;20010;-72
2022/07/15 02:04:50;;;;;;;5.82;2.58;;;17.80;1.00;;;;;;7362233;19;20573;-71
2022/07/15 02:07:22;;;;;;;5.85;3.10;;;17.80;1.00;;;;;;7363880;19;20121;-70
2022/07/15 02:09:52;;;;;;;5.57;2.67;;;17.80;1.00;;;;;;7367459;19;20056;-71
2022/07/15 02:12:22;;;;;;;3.90;2.63;;;17.80;1.00;;;;;;7368961;19;20015;-71
2022/07/15 02:14:52;;;;;;;3.40;2.40;;;17.70;1.00;;;;;;7361371;19;20022;-71
2022/07/15 02:17:22;;;;;;;4.05;2.15;;;17.80;1.00;;;;;;7383781;19;20014;-71
2022/07/15 02:19:52;;;;;;;4.07;2.50;;;17.50;1.00;;;;;;7366949;19;20014;-71
2022/07/15 02:22:24;;;;;;;4.40;2.50;;;17.60;1.00;;;;;;7368850;19;20053;-71
2022/07/15 02:24:54;;;;;;;4.30;2.17;;;17.60;1.00;;;;;;7361919;19;20074;-71
2022/07/15 02:27:24;;;;;;;3.80;2.30;;;17.40;1.00;;;;;;7362431;19;20629;-71
2022/07/15 02:29:54;;;;;;;3.10;2.03;;;17.30;1.00;;;;;;7368468;19;20053;-71
2022/07/15 02:32:24;;;;;;;6.65;2.10;;;17.30;1.00;;;;;;7390088;19;20350;-71
2022/07/15 02:34:54;;;;;;;5.25;2.63;;;17.20;1.00;;;;;;7361981;19;20495;-72
2022/07/15 02:37:27;;;;;;;3.67;2.55;;;17.20;1.00;;;;;;7362736;19;20102;-70
2022/07/15 02:39:57;;;;;;;4.80;2.70;;;17.20;1.00;;;;;;7366995;19;20014;-71
2022/07/15 02:42:27;;;;;;;5.03;2.72;;;17.30;1.00;;;;;;7367946;19;20031;-70
2022/07/15 02:44:57;;;;;;;3.28;2.30;;;17.20;1.00;;;;;;7361069;19;20022;-71
2022/07/15 02:47:26;;;;;;;4.53;2.38;;;17.20;1.00;;;;;;7383672;19;20077;-71
2022/07/15 02:49:56;;;;;;;9.65;3.50;;;17.10;1.00;;;;;;7365985;19;20522;-71
2022/07/15 02:52:29;;;;;;;9.20;2.92;;;17.10;1.00;;;;;;7367655;19;20337;-71
2022/07/15 02:54:59;;;;;;;7.35;3.17;;;17.10;1.00;;;;;;7361575;19;20082;-70
2022/07/15 02:57:29;;;;;;;5.32;2.97;;;17.10;1.00;;;;;;7362099;19;20094;-70
2022/07/15 02:59:58;;;;;;;8.20;3.40;;;17.00;1.00;;;;;;7366393;19;20803;-70
2022/07/15 03:02:29;;;;;;;7.72;2.67;;;17.00;1.00;;;;;;7389148;19;20035;-70
2022/07/15 03:05:00;;;;;;;5.75;3.05;;;17.00;1.00;;;;;;7360125;19;20354;-71
2022/07/15 03:07:32;;;;;;;5.82;2.92;;;16.80;1.00;;;;;;7362317;19;20031;-71
2022/07/15 03:10:02;;;;;;;5.85;2.85;;;16.80;1.00;;;;;;7367219;19;20457;-71
2022/07/15 03:12:32;;;;;;;4.57;2.42;;;16.80;1.00;;;;;;7366255;19;20394;-72
2022/07/15 03:15:03;;;;;;;6.45;2.55;;;16.70;1.00;;;;;;7361011;19;20015;-71
2022/07/15 03:17:33;;;;;;;6.82;2.30;;;16.70;1.00;;;;;;7382212;19;20011;-71
2022/07/15 03:20:03;;;;;;;3.90;2.85;;;16.60;1.00;;;;;;7364260;19;20018;-69
2022/07/15 03:22:36;;;;;;;4.80;2.60;;;16.60;1.00;;;;;;7366907;19;20021;-70
2022/07/15 03:25:07;;;;;;;6.75;2.50;;;16.50;1.00;;;;;;7360154;19;20738;-70
2022/07/15 03:27:37;;;;;;;5.68;2.80;;;16.60;1.00;;;;;;7359304;19;20588;-71
2022/07/15 03:30:09;;;;;;;4.90;2.55;;;16.60;1.00;;;;;;7366518;19;20022;-70
2022/07/15 03:32:39;;;;;;;7.40;3.13;;;16.60;1.00;;;;;;7387881;19;20097;-71
2022/07/15 03:35:09;;;;;;;7.18;3.30;;;16.60;1.00;;;;;;7359150;19;20414;-71
2022/07/15 03:37:42;;;;;;;6.93;2.70;;;16.70;1.00;;;;;;7360423;19;20417;-71
2022/07/15 03:40:13;;;;;;;13.10;3.38;;;16.70;1.00;;;;;;7364775;19;20411;-71
2022/07/15 03:42:43;;;;;;;8.88;3.25;;;16.70;1.00;;;;;;7366042;19;20013;-70
2022/07/15 03:45:13;;;;;;;6.65;3.35;;;16.70;1.00;;;;;;7360102;19;20082;-70
2022/07/15 03:47:43;;;;;;;5.25;3.30;;;16.70;1.00;;;;;;7380532;19;20480;-71
2022/07/15 03:50:13;;;;;;;4.82;2.97;;;16.70;1.00;;;;;;7364618;19;20725;-71
2022/07/15 03:52:45;;;;;;;5.45;3.00;;;16.80;1.00;;;;;;7364678;19;20102;-71
2022/07/15 03:55:15;;;;;;;5.55;3.35;;;16.80;1.00;;;;;;7356548;19;20086;-69
2022/07/15 03:57:45;;;;;;;5.95;2.90;;;17.30;1.00;;;;;;7358994;19;20086;-70
2022/07/15 04:00:16;;;;;;;4.30;2.55;;;18.10;1.00;;;;;;7366237;19;20055;-70
2022/07/15 04:02:47;;;;;;;6.43;3.40;;;18.90;1.00;;;;;;7386687;19;20610;-70
2022/07/15 04:05:17;;;;;;;10.43;2.95;;;19.00;1.00;;;;;;7359437;19;20045;-69
2022/07/15 04:07:50;;;;;;;7.35;3.28;;;19.00;1.00;;;;;;7358661;19;20368;-70
2022/07/15 04:10:20;;;;;;;6.80;3.00;;;19.30;1.00;;;;;;7364161;19;20079;-69
2022/07/15 04:12:50;;;;;;;6.30;3.15;;;20.00;1.00;;;;;;7364734;19;20034;-70
2022/07/15 04:15:20;;;;;;;3.95;2.78;;;20.20;1.00;;;;;;7359084;19;20011;-70
2022/07/15 04:17:50;;;;;;;5.55;2.70;;;20.50;1.00;;;;;;7366772;19;20070;-71
2022/07/15 04:20:19;;;;;;;4.90;2.90;;;20.60;1.00;;;;;;7386303;19;20014;-71
2022/07/15 04:22:52;;;;;;;4.22;2.72;;;21.50;1.00;;;;;;7363821;19;20419;-70
2022/07/15 04:25:23;;;;;;;4.97;2.65;;;21.70;1.00;;;;;;7358836;19;20082;-69
2022/07/15 04:27:53;;;;;;;4.93;2.53;;;21.70;1.00;;;;;;7363177;19;20014;-70
2022/07/15 04:30:23;;;;;;;5.25;2.72;;;21.50;1.00;;;;;;7364547;19;20066;-71
2022/07/15 04:32:53;;;;;;;6.35;2.90;;;21.20;1.00;;;;;;7367872;19;20349;-69
2022/07/15 04:35:23;;;;;;;7.00;2.97;;;21.60;1.00;;;;;;7384496;19;20021;-69
2022/07/15 04:37:55;;;;;;;5.85;2.72;;;22.20;1.00;;;;;;7368595;19;20018;-70
2022/07/15 04:40:25;;;;;;;5.20;2.80;;;22.20;1.00;;;;;;7369632;19;20015;-71
2022/07/15 04:42:57;;;;;;;3.95;2.63;;;22.30;1.00;;;;;;7371064;19;20002;-70
2022/07/15 04:45:27;;;;;;;5.00;2.55;;;22.50;1.00;;;;;;7362817;19;20792;-70
2022/07/15 04:47:57;;;;;;;6.40;2.70;;;22.50;1.00;;;;;;7368985;19;20019;-70
2022/07/15 04:53:12;;;;;;;7.43;3.00;;;23.50;1.00;;;;;;7370585;19;20007;-70
2022/07/15 04:55:42;;;;;;;7.82;3.10;;;24.10;1.00;;;;;;7361442;19;20081;-70
2022/07/15 04:58:14;;;;;;;3.85;2.55;;;24.50;1.00;;;;;;7370156;19;20084;-71
2022/07/15 05:00:44;;;;;;;6.00;2.80;;;24.40;1.00;;;;;;7369515;19;20035;-71
2022/07/15 05:03:15;;;;;;;5.13;2.95;;;24.70;1.00;;;;;;7368952;19;20018;-71
2022/07/15 05:05:45;;;;;;;4.25;2.40;;;25.10;1.00;;;;;;7384241;19;20088;-71
2022/07/15 05:08:18;;;;;;;3.00;2.30;;;24.90;1.00;;;;;;7368665;19;20529;-71
2022/07/15 05:10:47;;;;;;;2.92;2.42;;;24.70;1.00;;;;;;7369067;19;20488;-71
2022/07/15 05:13:17;;;;;;;5.10;2.35;;;24.40;1.00;;;;;;7370010;19;20517;-70
2022/07/15 05:15:47;;;;;;;4.43;2.40;;;24.90;1.00;;;;;;7361904;19;20026;-70
2022/07/15 05:18:17;;;;;;;3.20;1.98;;;25.00;1.00;;;;;;7368560;19;20019;-70
2022/07/15 05:20:47;;;;;;;3.20;2.67;;;25.10;1.00;;;;;;7390682;19;20026;-70
2022/07/15 05:23:21;;;;;;;4.15;2.28;;;25.00;1.00;;;;;;7369360;19;20081;-70
2022/07/15 05:25:51;;;;;;;4.22;2.47;;;24.20;1.00;;;;;;7359985;19;20014;-70
2022/07/15 05:28:21;;;;;;;3.83;2.28;;;24.20;1.00;;;;;;7368753;19;20078;-70
2022/07/15 05:30:50;;;;;;;4.97;2.90;;;24.50;1.00;;;;;;7368450;19;20010;-70
2022/07/15 05:33:21;;;;;;;6.03;2.95;;;24.40;1.00;;;;;;7368921;19;20018;-70
2022/07/15 05:35:51;;;;;;;4.05;2.40;;;24.80;1.00;;;;;;7359882;19;20347;-72
2022/07/15 05:38:26;;;;;;;6.18;2.40;;;24.10;1.00;;;;;;7389413;19;20069;-70
2022/07/15 05:40:56;;;;;;;4.03;2.58;;;24.50;1.00;;;;;;7367674;19;20044;-71
2022/07/15 05:43:26;;;;;;;5.05;2.50;;;24.50;1.00;;;;;;7366314;19;20098;-69
2022/07/15 05:45:56;;;;;;;4.40;2.60;;;24.10;1.00;;;;;;7359633;19;20077;-69
2022/07/15 05:48:25;;;;;;;4.57;2.30;;;24.60;1.00;;;;;;7368210;19;20646;-71
2022/07/15 05:50:55;;;;;;;3.15;2.20;;;24.70;1.00;;;;;;7368610;19;20021;-71
2022/07/15 05:53:28;;;;;;;4.88;2.42;;;24.20;1.00;;;;;;7391216;19;20007;-71
2022/07/15 05:55:58;;;;;;;5.72;2.63;;;24.50;1.00;;;;;;7358530;19;20522;-71
2022/07/15 05:58:28;;;;;;;5.38;2.40;;;24.00;1.00;;;;;;7366601;19;20070;-71
2022/07/15 06:00:58;;;;;;;4.03;2.45;;;24.10;1.00;;;;;;7366443;19;20014;-69
2022/07/15 06:03:28;;;;;;;5.30;2.35;;;24.60;1.00;;;;;;7366986;19;20455;-70
2022/07/15 06:05:58;;;;;;;4.10;2.40;;;24.50;1.00;;;;;;7360092;19;20013;-69
2022/07/15 06:08:30;;;;;;;4.30;2.00;;;23.90;1.00;;;;;;7388019;19;20015;-70
2022/07/15 06:11:00;;;;;;;7.07;2.50;;;23.60;1.00;;;;;;7367592;19;20006;-70
2022/07/15 06:13:30;;;;;;;7.32;2.70;;;23.50;1.00;;;;;;7367033;19;20040;-69
2022/07/15 06:16:00;;;;;;;5.35;2.33;;;23.70;1.00;;;;;;7356899;19;20359;-70
2022/07/15 06:18:32;;;;;;;5.15;2.22;;;23.50;1.00;;;;;;7365976;19;20002;-71
2022/07/15 06:21:03;;;;;;;4.82;1.95;;;22.60;1.00;;;;;;7365235;19;20006;-71
2022/07/15 06:23:36;;;;;;;6.93;2.30;;;22.00;1.00;;;;;;7386715;19;20098;-71
2022/07/15 06:26:06;;;;;;;5.27;2.13;;;21.50;1.00;;;;;;7360349;19;20090;-71
2022/07/15 06:28:36;;;;;;;4.47;2.03;;;21.70;1.00;;;;;;7364397;19;20006;-69
2022/07/15 06:31:06;;;;;;;6.97;2.00;;;21.90;1.00;;;;;;7365772;19;20046;-69
2022/07/15 06:33:36;;;;;;;5.70;2.15;;;22.50;1.00;;;;;;7364193;19;20015;-70
2022/07/15 06:36:06;;;;;;;6.38;1.92;;;22.70;1.00;;;;;;7356336;19;20018;-70
2022/07/15 06:38:39;;;;;;;2.72;2.00;;;23.50;1.00;;;;;;7383465;19;21839;-70
2022/07/15 06:41:09;;;;;;;5.50;1.80;;;23.40;1.00;;;;;;7362558;19;20062;-70
2022/07/15 06:43:39;;;;;;;4.97;1.75;;;23.80;1.00;;;;;;7363802;19;20685;-70
2022/07/15 06:46:09;;;;;;;2.92;1.80;;;23.80;1.00;;;;;;7358570;19;20007;-71
2022/07/15 06:48:40;;;;;;;3.72;2.03;;;23.80;1.00;;;;;;7357473;19;20010;-70
2022/07/15 06:51:11;;;;;;;5.28;1.80;;;23.50;1.00;;;;;;7361859;19;20018;-70
2022/07/15 06:53:44;;;;;;;4.43;1.50;;;22.70;1.00;;;;;;7384004;19;20430;-68
2022/07/15 06:56:14;;;;;;;2.97;1.48;;;21.70;1.00;;;;;;7355783;19;20014;-71
2022/07/15 06:58:45;;;;;;;4.72;2.08;;;21.60;1.00;;;;;;7361754;19;20010;-70
2022/07/15 07:01:15;;;;;;;4.32;1.60;;;21.70;1.00;;;;;;7365461;19;20094;-70
2022/07/15 07:03:45;;;;;;;3.92;1.92;;;21.90;1.00;;;;;;7361460;19;20090;-70
2022/07/15 07:06:28;;;;;;;4.88;1.50;;;21.30;1.00;;;;;;7348880;19;20010;-70
2022/07/15 07:09:00;;;;;;;5.00;1.70;;;21.70;1.00;;;;;;7364480;19;20085;-69
2022/07/15 07:11:30;;;;;;;5.35;1.65;;;21.10;1.00;;;;;;7386045;19;20014;-69
2022/07/15 07:14:01;;;;;;;3.95;1.88;;;21.70;1.00;;;;;;7360889;19;20541;-70
2022/07/15 07:16:31;;;;;;;4.80;1.50;;;21.50;1.00;;;;;;7359881;19;20085;-69
2022/07/15 07:19:02;;;;;;;4.35;1.63;;;22.00;1.00;;;;;;7364563;19;20011;-69
2022/07/15 07:21:34;;;;;;;3.80;1.48;;;21.90;1.00;;;;;;7364464;19;20390;-69
2022/07/15 07:24:07;;;;;;;3.22;1.67;;;22.00;1.00;;;;;;7362579;19;20474;-70
2022/07/15 07:26:37;;;;;;;2.97;1.60;;;22.20;1.00;;;;;;7380728;19;20025;-71
2022/07/15 07:29:07;;;;;;;3.65;1.80;;;22.60;1.00;;;;;;7362952;19;20007;-68
2022/07/15 07:31:37;;;;;;;4.10;1.90;;;22.60;1.00;;;;;;7363197;19;20490;-69
2022/07/15 07:34:07;;;;;;;4.95;1.90;;;22.60;1.00;;;;;;7362574;19;20584;-69
2022/07/15 07:36:37;;;;;;;3.17;1.63;;;22.30;1.00;;;;;;7358683;19;20011;-70
2022/07/15 07:39:09;;;;;;;5.07;1.80;;;22.40;1.00;;;;;;7364286;19;20011;-69
2022/07/15 07:41:40;;;;;;;3.92;1.80;;;22.60;1.00;;;;;;7386353;19;20015;-70
2022/07/15 07:44:10;;;;;;;5.00;1.70;;;22.80;1.00;;;;;;7362032;19;20011;-69
2022/07/15 07:46:40;;;;;;;3.95;1.45;;;22.60;1.00;;;;;;7355828;19;20014;-69
2022/07/15 07:49:10;;;;;;;3.75;1.70;;;22.60;1.00;;;;;;7362226;19;20011;-70
2022/07/15 07:52:00;;;;;;;3.05;1.60;;;22.50;1.00;;;;;;7363300;19;20037;-70
2022/07/15 07:54:32;;;;;;;5.75;1.75;;;22.50;1.00;;;;;;7360073;19;20066;-69
2022/07/15 07:57:03;;;;;;;4.32;1.83;;;22.50;1.00;;;;;;7358633;19;20032;-69
2022/07/15 07:59:33;;;;;;;2.88;1.38;;;22.60;1.00;;;;;;7384830;19;20010;-69
2022/07/15 08:02:03;;;;;;;3.63;1.75;;;23.00;1.00;;;;;;7364665;19;20074;-68
2022/07/15 08:04:34;;;;;;;3.60;1.50;;;22.80;1.00;;;;;;7360871;19;20503;-69
2022/07/15 08:07:06;;;;;;;10.18;1.80;;;22.90;1.00;;;;;;7360518;19;20552;-70
2022/07/15 08:09:38;;;;;;;7.53;1.70;;;22.80;1.00;;;;;;7370726;19;20010;-70
2022/07/15 08:12:09;;;;;;;4.75;1.90;;;23.00;1.00;;;;;;7371913;19;20077;-69
2022/07/15 08:14:39;;;;;;;7.32;1.70;;;23.00;1.00;;;;;;7389498;19;20082;-70
2022/07/15 08:17:08;;;;;;;2.17;1.45;;;22.60;1.00;;;;;;7364989;19;20018;-67
2022/07/15 08:19:38;;;;;;;6.80;1.70;;;22.50;1.00;;;;;;7369543;19;20575;-68
2022/07/15 08:22:11;;;;;;;4.65;1.60;;;22.90;1.00;;;;;;7371680;19;20494;-71
2022/07/15 08:24:46;;;;;;;4.63;1.50;;;23.00;1.00;;;;;;7365785;19;20600;-70
2022/07/15 08:27:16;;;;;;;3.63;1.75;;;22.90;1.00;;;;;;7364923;19;20078;-70
2022/07/15 08:29:46;;;;;;;6.32;1.95;;;22.60;1.00;;;;;;7392075;19;20422;-70
2022/07/15 08:32:16;;;;;;;9.05;1.70;;;23.10;1.00;;;;;;7371961;19;20070;-70
2022/07/15 08:34:47;;;;;;;3.17;1.45;;;23.30;1.00;;;;;;7366496;19;19998;-70
2022/07/15 08:37:16;;;;;;;1.98;1.45;;;23.30;1.00;;;;;;7365710;19;20086;-69
2022/07/15 08:39:49;;;;;;;3.70;1.38;;;23.70;1.00;;;;;;7369786;19;20076;-70
2022/07/15 08:42:21;;;;;;;4.68;1.70;;;23.70;1.00;;;;;;7370603;19;20010;-70
2022/07/15 08:44:53;;;;;;;5.25;1.40;;;23.70;1.00;;;;;;7367930;19;20010;-68
2022/07/15 08:47:25;;;;;;;4.60;1.88;;;23.30;1.00;;;;;;7383577;19;20026;-69
2022/07/15 08:50:17;;;;;;;3.75;1.60;;;23.00;1.00;;;;;;7364567;19;20007;-68
2022/07/15 08:52:51;;;;;;;2.80;1.42;;;23.40;1.00;;;;;;7369360;19;20473;-70
2022/07/15 08:55:24;;;;;;;;;;;23.30;1.00;;;;;;7363688;19;20097;-69
2022/07/15 08:57:55;;;;;;;3.80;1.60;;;22.90;1.00;;;;;;7369142;19;19921;-69
2022/07/15 09:00:28;;;;;;;4.15;1.65;;;23.50;1.00;;;;;;7370359;19;20006;-70
2022/07/15 09:03:00;;;;;;;5.00;1.75;;;23.50;1.00;;;;;;7370205;19;20017;-71
2022/07/15 09:05:33;;;;;;;5.95;1.55;;;23.10;1.00;;;;;;7384593;19;20014;-69
2022/07/15 09:08:05;;;;;;;3.00;1.60;;;23.20;1.00;;;;;;7367982;19;20026;-69
2022/07/15 09:10:50;;;;;;;5.38;1.80;;;23.00;1.00;;;;;;7369785;19;20022;-69
2022/07/15 09:13:30;;;;;;;6.13;1.45;;;22.90;1.00;;;;;;7368193;19;20014;-70
2022/07/15 09:16:02;;;;;;;3.35;1.40;;;23.30;1.00;;;;;;7360388;19;20006;-69
2022/07/15 09:18:35;;;;;;;2.03;1.58;;;24.00;1.00;;;;;;7365279;19;20121;-69
2022/07/15 09:21:05;;;;;;;6.93;1.80;;;23.60;1.00;;;;;;7367917;19;20014;-70
2022/07/15 09:23:35;;;;;;;3.22;1.48;;;23.10;1.00;;;;;;7388715;19;20025;-70
2022/07/15 09:26:27;;;;;;;3.60;1.90;;;24.00;1.00;;;;;;7361095;19;20525;-69
2022/07/15 09:28:59;;;;;;;8.35;1.92;;;23.70;1.00;;;;;;7366149;19;20014;-69
2022/07/15 09:34:13;;;;;;;4.28;1.70;;;23.60;1.00;;;;;;7367246;19;20017;-69
2022/07/15 09:36:45;;;;;;;6.90;4.18;;;23.90;1.00;;;;;;7364487;19;20002;-72
2022/07/15 09:39:15;;;;;;;3.97;1.80;;;24.80;1.00;;;;;;7364179;19;20037;-70
2022/07/15 09:41:49;;;;;;;4.95;1.48;;;24.50;1.00;;;;;;7388863;19;20035;-69
2022/07/15 09:44:21;;;;;;;5.03;1.77;;;24.10;1.00;;;;;;7363376;19;20021;-69
2022/07/15 09:46:53;;;;;;;3.03;1.85;;;24.20;1.00;;;;;;7361104;19;20039;-70
2022/07/15 09:49:37;;;;;;;5.28;1.60;;;24.00;1.00;;;;;;7364137;19;20031;-71
2022/07/15 09:52:09;;;;;;;4.95;1.92;;;23.30;1.00;;;;;;7365772;19;20038;-70
2022/07/15 09:54:40;;;;;;;3.22;1.63;;;23.70;1.00;;;;;;7364878;19;20010;-69
2022/07/15 09:57:19;;;;;;;5.40;1.88;;;24.40;1.00;;;;;;7361366;19;20114;-70
2022/07/15 09:59:51;;;;;;;6.03;1.95;;;24.20;1.00;;;;;;7384580;19;20033;-72
2022/07/15 10:02:21;;;;;;;5.68;1.98;;;23.90;1.00;;;;;;7389080;19;20010;-69
2022/07/15 10:04:51;;;;;;;3.42;1.67;;;24.20;1.00;;;;;;7361866;19;20045;-71
2022/07/15 10:07:24;;;;;;;3.80;1.95;;;24.10;1.00;;;;;;7358119;19;20013;-69
2022/07/15 10:10:00;;;;;;;4.40;1.95;;;23.90;1.00;;;;;;7361756;19;20226;-70
2022/07/15 10:12:48;;;;;;;4.15;1.58;;;24.60;1.00;;;;;;7366723;19;20091;-70
2022/07/15 10:15:31;;;;;;;5.53;1.67;;;24.70;1.00;;;;;;7362250;19;20704;-69
2022/07/15 10:18:13;;;;;;;2.88;2.00;;;24.20;1.00;;;;;;7363151;19;20078;-69
2022/07/15 10:21:08;;;;;;;6.28;1.88;;;24.90;1.00;;;;;;7382778;19;20030;-69
2022/07/15 10:23:52;;;;;;;5.75;2.25;;;24.30;1.00;;;;;;7362998;19;20010;-69
2022/07/15 10:26:34;;;;;;;5.88;2.15;;;24.10;1.00;;;;;;7360427;19;20018;-69
2022/07/15 10:29:09;;;;;;;5.00;1.92;;;24.00;1.00;;;;;;7362077;19;20070;-70
2022/07/15 10:31:42;;;;;;;3.10;1.95;;;24.10;1.00;;;;;;7365134;19;20046;-70
2022/07/15 10:34:20;;;;;;;4.50;2.00;;;24.40;1.00;;;;;;7364002;19;20006;-70
2022/07/15 10:36:58;;;;;;;3.20;1.92;;;24.90;1.00;;;;;;7361409;19;20018;-71
2022/07/15 10:39:30;;;;;;;5.07;2.03;;;25.00;1.00;;;;;;7364126;19;20014;-70
2022/07/15 10:42:02;;;;;;;4.35;1.92;;;24.90;1.00;;;;;;7363807;19;20352;-69
2022/07/15 10:44:36;;;;;;;4.45;2.10;;;24.90;1.00;;;;;;7385414;19;20022;-70
2022/07/15 10:47:20;;;;;;;4.68;2.42;;;25.40;1.00;;;;;;7360157;19;20019;-70
2022/07/15 10:49:52;;;;;;;4.22;2.15;;;25.70;1.00;;;;;;7362656;19;20011;-69
2022/07/15 10:52:24;;;;;;;3.15;1.98;;;25.70;1.00;;;;;;7365347;19;20010;-70
2022/07/15 10:55:03;;;;;;;4.30;2.05;;;25.30;1.00;;;;;;7362841;19;20022;-70
2022/07/15 10:57:53;;;;;;;6.75;2.40;;;25.70;1.00;;;;;;7360675;19;20018;-70
2022/07/15 11:00:37;;;;;;;4.88;1.98;;;25.30;1.00;;;;;;7364460;19;20085;-70
2022/07/15 11:03:09;;;;;;;5.85;2.20;;;25.00;1.00;;;;;;7365661;19;20019;-70
2022/07/15 11:06:03;;;;;;;5.72;2.38;;;24.50;1.00;;;;;;7377737;19;20022;-70
2022/07/15 11:08:50;;;;;;;5.65;2.35;;;24.80;1.00;;;;;;7362978;19;20013;-70
2022/07/15 11:11:51;;;;;;;5.45;2.30;;;25.60;1.00;;;;;;7366221;19;20007;-70
2022/07/15 11:14:49;;;;;;;3.83;1.77;;;25.40;1.00;;;;;;7364097;19;20013;-69
2022/07/15 11:17:25;;;;;;;3.92;2.20;;;25.10;1.00;;;;;;7358384;19;20115;-70
2022/07/15 11:20:03;;;;;;;4.68;1.90;;;25.20;1.00;;;;;;7362157;19;20560;-70
2022/07/15 11:22:33;;;;;;;5.20;1.85;;;25.40;1.00;;;;;;7365270;19;20022;-69
2022/07/15 11:25:03;;;;;;;5.30;2.20;;;24.90;1.00;;;;;;7362874;19;20085;-71
2022/07/15 11:27:33;;;;;;;4.97;2.15;;;25.30;1.00;;;;;;7359365;19;20025;-69
2022/07/15 11:30:07;;;;;;;5.65;2.00;;;25.10;1.00;;;;;;7362181;19;20025;-69
2022/07/15 11:32:39;;;;;;;4.00;1.95;;;25.30;1.00;;;;;;7385973;19;20498;-70
2022/07/15 11:35:10;;;;;;;4.93;2.10;;;25.70;1.00;;;;;;7361327;19;20466;-70
2022/07/15 11:37:45;;;;;;;5.75;1.75;;;26.10;1.00;;;;;;7362717;19;20021;-70
2022/07/15 11:44:29;;;;;;;4.72;2.00;;;25.20;1.00;;;;;;7359916;19;20002;-69
2022/07/15 11:45:56;;;;;;;3.65;2.15;;;24.40;1.00;;;;;;7358651;19;20010;-69
2022/07/15 11:48:29;;;;;;;2.53;1.73;;;24.70;1.00;;;;;;7362473;19;20007;-70
2022/07/15 11:51:00;;;;;;;3.63;1.98;;;25.10;1.00;;;;;;7366501;19;20020;-70
2022/07/15 11:53:29;;;;;;;5.20;2.20;;;25.40;1.00;;;;;;7386061;19;20014;-69
2022/07/15 11:56:01;;;;;;;3.97;1.85;;;25.30;1.00;;;;;;7357503;19;20011;-69
2022/07/15 11:58:33;;;;;;;3.05;2.10;;;25.60;1.00;;;;;;7362199;19;20010;-68
2022/07/15 12:01:07;;;;;;;3.33;2.15;;;25.40;1.00;;;;;;7364445;19;20034;-69
2022/07/15 12:03:43;;;;;;;3.38;2.45;;;25.40;1.00;;;;;;7363905;19;20018;-70
2022/07/15 12:06:16;;;;;;;5.10;2.42;;;25.00;1.00;;;;;;7359540;19;20031;-69
2022/07/15 12:08:51;;;;;;;3.97;1.85;;;24.80;1.00;;;;;;7383732;19;20010;-69
2022/07/15 12:11:24;;;;;;;2.53;1.70;;;24.70;1.00;;;;;;7364569;19;20171;-68
2022/07/15 12:13:58;;;;;;;7.03;2.00;;;25.00;1.00;;;;;;7362140;19;20031;-70
2022/07/15 12:16:31;;;;;;;3.85;2.08;;;25.20;1.00;;;;;;7359972;19;20032;-69
2022/07/15 12:19:07;;;;;;;4.43;2.10;;;24.80;1.00;;;;;;7361043;19;20015;-71
2022/07/15 12:21:39;;;;;;;7.88;4.03;;;25.50;1.00;;;;;;7364347;19;20015;-69
2022/07/15 12:24:12;;;;;;;3.70;2.05;;;26.00;1.00;;;;;;7360720;19;20019;-69
2022/07/15 12:26:44;;;;;;;5.13;2.03;;;25.50;1.00;;;;;;7378267;19;20237;-69
2022/07/15 12:29:14;;;;;;;3.75;1.73;;;25.70;1.00;;;;;;7360100;19;20023;-69
2022/07/15 12:31:45;;;;;;;3.33;1.85;;;25.90;1.00;;;;;;7364497;19;20049;-69
2022/07/15 12:34:18;;;;;;;5.32;1.95;;;26.30;1.00;;;;;;7362486;19;20451;-70
2022/07/15 12:36:57;;;;;;;9.70;1.92;;;26.20;1.00;;;;;;7358872;19;20013;-69
2022/07/15 12:39:28;;;;;;;2.15;1.60;;;25.60;1.00;;;;;;7361878;19;20485;-69
2022/07/15 12:42:03;;;;;;;3.33;1.88;;;24.90;1.00;;;;;;7364614;19;20015;-69
2022/07/15 12:44:34;;;;;;;3.60;2.22;;;25.40;1.00;;;;;;7383651;19;20486;-69
2022/07/15 12:47:07;;;;;;;4.90;2.40;;;25.40;1.00;;;;;;7355292;19;20033;-70
2022/07/15 12:49:49;;;;;;;3.25;2.00;;;25.90;1.00;;;;;;7361221;19;20005;-69
2022/07/15 12:52:23;;;;;;;5.72;2.28;;;25.50;1.00;;;;;;7364149;19;20470;-70
2022/07/15 12:54:54;;;;;;;2.78;1.90;;;25.60;1.00;;;;;;7368068;19;20107;-70
2022/07/15 12:57:30;;;;;;;5.45;2.03;;;25.60;1.00;;;;;;7363375;19;20022;-70
2022/07/15 13:00:04;;;;;;;3.92;1.90;;;25.80;1.00;;;;;;7367874;19;20015;-70
2022/07/15 13:02:34;;;;;;;2.80;2.10;;;25.60;1.00;;;;;;7393633;19;20110;-70
2022/07/15 13:05:08;;;;;;;4.82;1.70;;;25.70;1.00;;;;;;7366967;19;20043;-69
2022/07/15 13:07:38;;;;;;;3.67;2.35;;;25.70;1.00;;;;;;7368404;19;20014;-69
2022/07/15 13:10:09;;;;;;;2.85;1.67;;;25.40;1.00;;;;;;7366390;19;20078;-70
2022/07/15 13:12:41;;;;;;;5.32;2.08;;;25.50;1.00;;;;;;7371797;19;20755;-68
2022/07/15 13:15:12;;;;;;;4.20;2.03;;;25.90;1.00;;;;;;7366742;19;20514;-70
2022/07/15 13:17:42;;;;;;;4.30;1.88;;;26.30;1.00;;;;;;7388275;19;20010;-69
2022/07/15 13:20:15;;;;;;;2.40;1.88;;;26.10;1.00;;;;;;7366895;19;20712;-70
2022/07/15 13:22:45;;;;;;;2.47;1.70;;;26.10;1.00;;;;;;7370797;19;20010;-71
2022/07/15 13:25:18;;;;;;;2.50;1.75;;;26.20;1.00;;;;;;7362778;19;20020;-70
2022/07/15 13:27:49;;;;;;;3.67;2.08;;;25.80;1.00;;;;;;7368713;19;20003;-69
2022/07/15 13:30:19;;;;;;;4.03;1.77;;;25.80;1.00;;;;;;7365019;19;20044;-70
2022/07/15 13:32:49;;;;;;;4.32;2.00;;;25.60;1.00;;;;;;7389071;19;20470;-74